sensor_id;sensor_type;location;lat;lon;timestamp;P1;durP1;ratioP1;P2;durP2;ratioP2
20002;SDS011;10162;41.600;23.806;2023-08-17T00:01:53;5.40;;;4.90;;
20002;SDS011;10162;41.600;23.806;2023-08-17T00:04:19;11.27;;;6.40;;
20002;SDS011;10162;41.600;23.806;2023-08-17T00:06:45;6.97;;;5.60;;
20002;SDS011;10162;41.600;23.806;2023-08-17T00:09:15;6.83;;;5.43;;
20002;SDS011;10162;41.600;23.806;2023-08-17T00:11:40;6.13;;;5.53;;
20002;SDS011;10162;41.600;23.806;2023-08-17T00:14:06;6.77;;;5.70;;
20002;SDS011;10162;41.600;23.806;2023-08-17T00:16:32;9.20;;;5.10;;
20002;SDS011;10162;41.600;23.806;2023-08-17T00:18:58;6.30;;;5.60;;
20002;SDS011;10162;41.600;23.806;2023-08-17T00:21:23;6.37;;;5.47;;
20002;SDS011;10162;41.600;23.806;2023-08-17T00:23:50;5.60;;;5.00;;
20002;SDS011;10162;41.600;23.806;2023-08-17T00:26:16;7.70;;;5.53;;
20002;SDS011;10162;41.600;23.806;2023-08-17T00:28:42;6.50;;;5.33;;
20002;SDS011;10162;41.600;23.806;2023-08-17T00:31:09;11.90;;;5.67;;
20002;SDS011;10162;41.600;23.806;2023-08-17T00:33:35;7.80;;;5.63;;
20002;SDS011;10162;41.600;23.806;2023-08-17T00:36:00;7.87;;;5.37;;
20002;SDS011;10162;41.600;23.806;2023-08-17T00:38:27;9.53;;;5.50;;
20002;SDS011;10162;41.600;23.806;2023-08-17T00:40:53;5.87;;;5.17;;
20002;SDS011;10162;41.600;23.806;2023-08-17T00:43:22;6.10;;;5.13;;
20002;SDS011;10162;41.600;23.806;2023-08-17T00:45:48;6.30;;;5.70;;
20002;SDS011;10162;41.600;23.806;2023-08-17T00:48:14;6.40;;;5.70;;
20002;SDS011;10162;41.600;23.806;2023-08-17T00:50:40;6.17;;;5.50;;
20002;SDS011;10162;41.600;23.806;2023-08-17T00:53:08;7.27;;;5.37;;
20002;SDS011;10162;41.600;23.806;2023-08-17T00:55:38;5.73;;;5.10;;
20002;SDS011;10162;41.600;23.806;2023-08-17T00:58:05;5.87;;;5.27;;
20002;SDS011;10162;41.600;23.806;2023-08-17T01:00:32;5.50;;;4.87;;
20002;SDS011;10162;41.600;23.806;2023-08-17T01:02:58;7.97;;;5.63;;
20002;SDS011;10162;41.600;23.806;2023-08-17T01:05:24;6.10;;;5.37;;
20002;SDS011;10162;41.600;23.806;2023-08-17T01:07:50;6.83;;;5.40;;
20002;SDS011;10162;41.600;23.806;2023-08-17T01:10:16;7.23;;;5.10;;
20002;SDS011;10162;41.600;23.806;2023-08-17T01:18:08;7.23;;;5.90;;
20002;SDS011;10162;41.600;23.806;2023-08-17T01:20:42;6.57;;;5.00;;
20002;SDS011;10162;41.600;23.806;2023-08-17T01:23:09;9.20;;;5.03;;
20002;SDS011;10162;41.600;23.806;2023-08-17T01:25:36;6.40;;;5.30;;
20002;SDS011;10162;41.600;23.806;2023-08-17T01:28:02;6.63;;;5.30;;
20002;SDS011;10162;41.600;23.806;2023-08-17T01:30:44;6.83;;;6.10;;
20002;SDS011;10162;41.600;23.806;2023-08-17T01:33:33;6.33;;;5.30;;
20002;SDS011;10162;41.600;23.806;2023-08-17T01:38:52;8.33;;;5.80;;
20002;SDS011;10162;41.600;23.806;2023-08-17T01:41:22;7.03;;;5.70;;
20002;SDS011;10162;41.600;23.806;2023-08-17T01:43:49;10.00;;;6.33;;
20002;SDS011;10162;41.600;23.806;2023-08-17T01:46:16;16.20;;;5.67;;
20002;SDS011;10162;41.600;23.806;2023-08-17T01:48:43;7.17;;;5.97;;
20002;SDS011;10162;41.600;23.806;2023-08-17T01:51:16;6.20;;;5.60;;
20002;SDS011;10162;41.600;23.806;2023-08-17T01:53:44;8.73;;;6.47;;
20002;SDS011;10162;41.600;23.806;2023-08-17T01:56:10;11.00;;;6.00;;
20002;SDS011;10162;41.600;23.806;2023-08-17T01:58:37;9.30;;;5.70;;
20002;SDS011;10162;41.600;23.806;2023-08-17T02:01:04;8.40;;;5.47;;
20002;SDS011;10162;41.600;23.806;2023-08-17T02:03:31;7.57;;;5.70;;
20002;SDS011;10162;41.600;23.806;2023-08-17T02:05:57;7.57;;;5.80;;
20002;SDS011;10162;41.600;23.806;2023-08-17T02:08:25;7.17;;;5.83;;
20002;SDS011;10162;41.600;23.806;2023-08-17T02:10:52;5.97;;;4.97;;
20002;SDS011;10162;41.600;23.806;2023-08-17T02:13:20;6.80;;;5.23;;
20002;SDS011;10162;41.600;23.806;2023-08-17T02:15:46;8.30;;;5.57;;
20002;SDS011;10162;41.600;23.806;2023-08-17T02:18:12;7.13;;;5.90;;
20002;SDS011;10162;41.600;23.806;2023-08-17T02:20:38;7.43;;;5.23;;
20002;SDS011;10162;41.600;23.806;2023-08-17T02:23:04;7.10;;;5.40;;
20002;SDS011;10162;41.600;23.806;2023-08-17T02:25:29;5.97;;;5.33;;
20002;SDS011;10162;41.600;23.806;2023-08-17T02:28:01;5.90;;;5.30;;
20002;SDS011;10162;41.600;23.806;2023-08-17T02:30:27;6.20;;;5.00;;
20002;SDS011;10162;41.600;23.806;2023-08-17T02:32:53;11.47;;;5.77;;
20002;SDS011;10162;41.600;23.806;2023-08-17T02:35:19;8.20;;;5.27;;
20002;SDS011;10162;41.600;23.806;2023-08-17T02:37:45;6.20;;;5.13;;
20002;SDS011;10162;41.600;23.806;2023-08-17T02:40:11;6.63;;;4.80;;
20002;SDS011;10162;41.600;23.806;2023-08-17T02:42:37;6.80;;;5.07;;
20002;SDS011;10162;41.600;23.806;2023-08-17T02:45:05;8.53;;;5.10;;
20002;SDS011;10162;41.600;23.806;2023-08-17T02:47:32;5.47;;;4.67;;
20002;SDS011;10162;41.600;23.806;2023-08-17T02:49:57;7.57;;;4.57;;
20002;SDS011;10162;41.600;23.806;2023-08-17T02:52:24;7.63;;;5.27;;
20002;SDS011;10162;41.600;23.806;2023-08-17T02:54:50;6.20;;;5.07;;
20002;SDS011;10162;41.600;23.806;2023-08-17T02:57:15;5.60;;;4.97;;
20002;SDS011;10162;41.600;23.806;2023-08-17T02:59:41;9.27;;;4.73;;
20002;SDS011;10162;41.600;23.806;2023-08-17T03:02:09;5.50;;;4.73;;
20002;SDS011;10162;41.600;23.806;2023-08-17T03:04:38;5.07;;;4.57;;
20002;SDS011;10162;41.600;23.806;2023-08-17T03:07:04;6.30;;;5.30;;
20002;SDS011;10162;41.600;23.806;2023-08-17T03:09:30;5.60;;;5.00;;
20002;SDS011;10162;41.600;23.806;2023-08-17T03:11:57;7.60;;;5.20;;
20002;SDS011;10162;41.600;23.806;2023-08-17T03:14:23;7.33;;;5.07;;
20002;SDS011;10162;41.600;23.806;2023-08-17T03:16:49;6.40;;;4.90;;
20002;SDS011;10162;41.600;23.806;2023-08-17T03:19:14;5.53;;;5.03;;
20002;SDS011;10162;41.600;23.806;2023-08-17T03:21:43;8.07;;;5.00;;
20002;SDS011;10162;41.600;23.806;2023-08-17T03:24:09;7.40;;;5.13;;
20002;SDS011;10162;41.600;23.806;2023-08-17T03:26:36;6.07;;;5.20;;
20002;SDS011;10162;41.600;23.806;2023-08-17T03:29:02;8.93;;;5.10;;
20002;SDS011;10162;41.600;23.806;2023-08-17T03:31:28;6.63;;;4.80;;
20002;SDS011;10162;41.600;23.806;2023-08-17T03:33:55;8.47;;;4.87;;
20002;SDS011;10162;41.600;23.806;2023-08-17T03:36:21;5.40;;;4.40;;
20002;SDS011;10162;41.600;23.806;2023-08-17T03:38:47;7.53;;;5.03;;
20002;SDS011;10162;41.600;23.806;2023-08-17T03:41:13;6.67;;;4.83;;
20002;SDS011;10162;41.600;23.806;2023-08-17T03:43:39;5.43;;;4.63;;
20002;SDS011;10162;41.600;23.806;2023-08-17T03:46:05;5.37;;;4.73;;
20002;SDS011;10162;41.600;23.806;2023-08-17T03:48:31;5.17;;;4.67;;
20002;SDS011;10162;41.600;23.806;2023-08-17T03:50:58;8.83;;;4.73;;
20002;SDS011;10162;41.600;23.806;2023-08-17T03:53:24;5.90;;;4.60;;
20002;SDS011;10162;41.600;23.806;2023-08-17T03:55:51;5.40;;;4.60;;
20002;SDS011;10162;41.600;23.806;2023-08-17T03:58:17;6.50;;;4.70;;
20002;SDS011;10162;41.600;23.806;2023-08-17T04:00:50;5.70;;;5.03;;
20002;SDS011;10162;41.600;23.806;2023-08-17T04:03:23;9.00;;;4.73;;
20002;SDS011;10162;41.600;23.806;2023-08-17T04:05:50;4.70;;;4.23;;
20002;SDS011;10162;41.600;23.806;2023-08-17T04:08:15;13.13;;;5.10;;
20002;SDS011;10162;41.600;23.806;2023-08-17T04:10:41;6.23;;;4.67;;
20002;SDS011;10162;41.600;23.806;2023-08-17T04:13:07;6.37;;;4.43;;
20002;SDS011;10162;41.600;23.806;2023-08-17T04:15:33;6.80;;;4.73;;
20002;SDS011;10162;41.600;23.806;2023-08-17T04:17:58;6.87;;;4.87;;
20002;SDS011;10162;41.600;23.806;2023-08-17T04:20:25;8.60;;;4.87;;
20002;SDS011;10162;41.600;23.806;2023-08-17T04:22:51;7.63;;;5.03;;
20002;SDS011;10162;41.600;23.806;2023-08-17T04:25:17;7.60;;;5.17;;
20002;SDS011;10162;41.600;23.806;2023-08-17T04:27:42;4.73;;;4.30;;
20002;SDS011;10162;41.600;23.806;2023-08-17T04:30:10;8.07;;;5.23;;
20002;SDS011;10162;41.600;23.806;2023-08-17T04:32:48;12.83;;;5.23;;
20002;SDS011;10162;41.600;23.806;2023-08-17T04:35:20;4.73;;;4.30;;
20002;SDS011;10162;41.600;23.806;2023-08-17T04:37:46;5.13;;;4.63;;
20002;SDS011;10162;41.600;23.806;2023-08-17T04:40:16;5.40;;;4.53;;
20002;SDS011;10162;41.600;23.806;2023-08-17T04:42:42;7.63;;;4.67;;
20002;SDS011;10162;41.600;23.806;2023-08-17T04:45:07;6.87;;;5.00;;
20002;SDS011;10162;41.600;23.806;2023-08-17T04:47:38;8.00;;;4.97;;
20002;SDS011;10162;41.600;23.806;2023-08-17T04:50:05;11.53;;;5.73;;
20002;SDS011;10162;41.600;23.806;2023-08-17T04:52:33;9.17;;;4.93;;
20002;SDS011;10162;41.600;23.806;2023-08-17T04:54:58;8.07;;;5.40;;
20002;SDS011;10162;41.600;23.806;2023-08-17T04:57:24;6.93;;;5.03;;
20002;SDS011;10162;41.600;23.806;2023-08-17T04:59:51;5.47;;;4.93;;
20002;SDS011;10162;41.600;23.806;2023-08-17T05:02:17;10.03;;;4.80;;
20002;SDS011;10162;41.600;23.806;2023-08-17T05:04:43;13.07;;;5.43;;
20002;SDS011;10162;41.600;23.806;2023-08-17T05:07:08;9.17;;;5.07;;
20002;SDS011;10162;41.600;23.806;2023-08-17T05:09:37;11.47;;;5.70;;
20002;SDS011;10162;41.600;23.806;2023-08-17T05:12:03;14.67;;;4.87;;
20002;SDS011;10162;41.600;23.806;2023-08-17T05:14:29;4.90;;;4.40;;
20002;SDS011;10162;41.600;23.806;2023-08-17T05:16:55;7.90;;;4.73;;
20002;SDS011;10162;41.600;23.806;2023-08-17T05:19:20;10.63;;;4.70;;
20002;SDS011;10162;41.600;23.806;2023-08-17T05:21:46;10.67;;;6.33;;
20002;SDS011;10162;41.600;23.806;2023-08-17T05:24:14;13.38;;;6.28;;
20002;SDS011;10162;41.600;23.806;2023-08-17T05:26:39;6.70;;;5.32;;
20002;SDS011;10162;41.600;23.806;2023-08-17T05:29:06;8.48;;;4.80;;
20002;SDS011;10162;41.600;23.806;2023-08-17T05:31:32;5.80;;;5.20;;
20002;SDS011;10162;41.600;23.806;2023-08-17T05:33:58;9.15;;;4.90;;
20002;SDS011;10162;41.600;23.806;2023-08-17T05:36:24;5.78;;;5.20;;
20002;SDS011;10162;41.600;23.806;2023-08-17T05:38:51;6.20;;;5.60;;
20002;SDS011;10162;41.600;23.806;2023-08-17T05:41:16;9.70;;;6.30;;
20002;SDS011;10162;41.600;23.806;2023-08-17T05:43:43;16.17;;;8.10;;
20002;SDS011;10162;41.600;23.806;2023-08-17T05:46:08;11.98;;;8.02;;
20002;SDS011;10162;41.600;23.806;2023-08-17T05:48:35;9.52;;;6.20;;
20002;SDS011;10162;41.600;23.806;2023-08-17T05:51:01;7.95;;;6.03;;
20002;SDS011;10162;41.600;23.806;2023-08-17T05:53:27;8.73;;;5.80;;
20002;SDS011;10162;41.600;23.806;2023-08-17T05:55:53;8.68;;;5.70;;
20002;SDS011;10162;41.600;23.806;2023-08-17T05:58:19;11.13;;;5.05;;
20002;SDS011;10162;41.600;23.806;2023-08-17T06:00:44;7.40;;;5.60;;
20002;SDS011;10162;41.600;23.806;2023-08-17T06:03:10;7.53;;;6.47;;
20002;SDS011;10162;41.600;23.806;2023-08-17T06:05:36;7.35;;;6.22;;
20002;SDS011;10162;41.600;23.806;2023-08-17T06:08:03;9.38;;;6.05;;
20002;SDS011;10162;41.600;23.806;2023-08-17T06:10:29;8.75;;;7.45;;
20002;SDS011;10162;41.600;23.806;2023-08-17T06:12:57;8.68;;;6.95;;
20002;SDS011;10162;41.600;23.806;2023-08-17T06:15:23;20.40;;;12.77;;
20002;SDS011;10162;41.600;23.806;2023-08-17T06:17:50;13.85;;;10.35;;
20002;SDS011;10162;41.600;23.806;2023-08-17T06:20:16;14.20;;;8.80;;
20002;SDS011;10162;41.600;23.806;2023-08-17T06:22:42;7.82;;;5.88;;
20002;SDS011;10162;41.600;23.806;2023-08-17T06:25:08;8.02;;;5.22;;
20002;SDS011;10162;41.600;23.806;2023-08-17T06:27:37;6.57;;;5.45;;
20002;SDS011;10162;41.600;23.806;2023-08-17T06:30:03;7.50;;;5.40;;
20002;SDS011;10162;41.600;23.806;2023-08-17T06:32:32;8.23;;;5.40;;
20002;SDS011;10162;41.600;23.806;2023-08-17T06:34:58;8.38;;;5.35;;
20002;SDS011;10162;41.600;23.806;2023-08-17T06:37:23;7.00;;;4.88;;
20002;SDS011;10162;41.600;23.806;2023-08-17T06:39:49;8.70;;;5.05;;
20002;SDS011;10162;41.600;23.806;2023-08-17T06:42:17;6.43;;;5.65;;
20002;SDS011;10162;41.600;23.806;2023-08-17T06:44:42;7.70;;;5.55;;
20002;SDS011;10162;41.600;23.806;2023-08-17T06:47:08;9.02;;;5.05;;
20002;SDS011;10162;41.600;23.806;2023-08-17T06:49:34;15.00;;;5.30;;
20002;SDS011;10162;41.600;23.806;2023-08-17T06:52:01;6.78;;;4.97;;
20002;SDS011;10162;41.600;23.806;2023-08-17T06:54:28;5.90;;;5.40;;
20002;SDS011;10162;41.600;23.806;2023-08-17T06:56:53;9.93;;;5.18;;
20002;SDS011;10162;41.600;23.806;2023-08-17T06:59:19;5.60;;;5.00;;
20002;SDS011;10162;41.600;23.806;2023-08-17T07:01:45;4.68;;;4.28;;
20002;SDS011;10162;41.600;23.806;2023-08-17T07:04:11;5.57;;;3.70;;
20002;SDS011;10162;41.600;23.806;2023-08-17T07:06:37;8.13;;;3.60;;
20002;SDS011;10162;41.600;23.806;2023-08-17T07:09:03;9.00;;;4.32;;
20002;SDS011;10162;41.600;23.806;2023-08-17T07:11:30;6.00;;;4.25;;
20002;SDS011;10162;41.600;23.806;2023-08-17T07:13:56;4.65;;;3.30;;
20002;SDS011;10162;41.600;23.806;2023-08-17T07:16:23;4.10;;;3.05;;
20002;SDS011;10162;41.600;23.806;2023-08-17T07:18:48;3.75;;;2.97;;
20002;SDS011;10162;41.600;23.806;2023-08-17T07:21:14;3.95;;;3.13;;
20002;SDS011;10162;41.600;23.806;2023-08-17T07:23:43;5.95;;;2.55;;
20002;SDS011;10162;41.600;23.806;2023-08-17T07:26:12;2.55;;;2.35;;
20002;SDS011;10162;41.600;23.806;2023-08-17T07:28:38;2.42;;;2.22;;
20002;SDS011;10162;41.600;23.806;2023-08-17T07:31:03;2.78;;;2.42;;
20002;SDS011;10162;41.600;23.806;2023-08-17T07:33:31;2.88;;;2.53;;
20002;SDS011;10162;41.600;23.806;2023-08-17T07:35:57;3.22;;;2.50;;
20002;SDS011;10162;41.600;23.806;2023-08-17T07:38:23;2.83;;;2.40;;
20002;SDS011;10162;41.600;23.806;2023-08-17T07:40:50;6.40;;;2.85;;
20002;SDS011;10162;41.600;23.806;2023-08-17T07:43:16;2.60;;;2.40;;
20002;SDS011;10162;41.600;23.806;2023-08-17T07:45:42;4.63;;;2.65;;
20002;SDS011;10162;41.600;23.806;2023-08-17T07:48:07;3.85;;;2.65;;
20002;SDS011;10162;41.600;23.806;2023-08-17T07:50:33;5.30;;;2.88;;
20002;SDS011;10162;41.600;23.806;2023-08-17T07:52:59;5.22;;;2.92;;
20002;SDS011;10162;41.600;23.806;2023-08-17T07:55:25;2.58;;;2.35;;
20002;SDS011;10162;41.600;23.806;2023-08-17T07:57:51;3.72;;;2.38;;
20002;SDS011;10162;41.600;23.806;2023-08-17T08:00:17;7.07;;;2.78;;
20002;SDS011;10162;41.600;23.806;2023-08-17T08:02:43;2.90;;;2.70;;
20002;SDS011;10162;41.600;23.806;2023-08-17T08:05:09;6.18;;;2.58;;
20002;SDS011;10162;41.600;23.806;2023-08-17T08:07:35;3.47;;;2.60;;
20002;SDS011;10162;41.600;23.806;2023-08-17T08:10:02;5.50;;;2.47;;
20002;SDS011;10162;41.600;23.806;2023-08-17T08:12:28;4.57;;;2.70;;
20002;SDS011;10162;41.600;23.806;2023-08-17T08:14:54;3.10;;;2.40;;
20002;SDS011;10162;41.600;23.806;2023-08-17T08:17:20;4.00;;;2.60;;
20002;SDS011;10162;41.600;23.806;2023-08-17T08:19:45;2.38;;;2.17;;
20002;SDS011;10162;41.600;23.806;2023-08-17T08:22:11;2.58;;;2.30;;
20002;SDS011;10162;41.600;23.806;2023-08-17T08:24:38;4.47;;;2.80;;
20002;SDS011;10162;41.600;23.806;2023-08-17T08:27:06;3.75;;;2.53;;
20002;SDS011;10162;41.600;23.806;2023-08-17T08:29:32;6.63;;;2.38;;
20002;SDS011;10162;41.600;23.806;2023-08-17T08:31:58;3.78;;;2.40;;
20002;SDS011;10162;41.600;23.806;2023-08-17T08:34:25;3.28;;;2.72;;
20002;SDS011;10162;41.600;23.806;2023-08-17T08:36:51;3.30;;;3.00;;
20002;SDS011;10162;41.600;23.806;2023-08-17T08:39:17;3.40;;;2.40;;
20002;SDS011;10162;41.600;23.806;2023-08-17T08:41:42;2.95;;;2.60;;
20002;SDS011;10162;41.600;23.806;2023-08-17T08:44:09;2.85;;;2.60;;
20002;SDS011;10162;41.600;23.806;2023-08-17T08:46:34;6.75;;;2.70;;
20002;SDS011;10162;41.600;23.806;2023-08-17T08:49:06;2.67;;;2.45;;
20002;SDS011;10162;41.600;23.806;2023-08-17T08:51:36;3.08;;;2.30;;
20002;SDS011;10162;41.600;23.806;2023-08-17T08:54:09;2.97;;;2.67;;
20002;SDS011;10162;41.600;23.806;2023-08-17T08:56:39;4.30;;;2.40;;
20002;SDS011;10162;41.600;23.806;2023-08-17T08:59:10;3.10;;;2.33;;
20002;SDS011;10162;41.600;23.806;2023-08-17T09:01:36;3.22;;;2.83;;
20002;SDS011;10162;41.600;23.806;2023-08-17T09:04:03;3.58;;;2.70;;
20002;SDS011;10162;41.600;23.806;2023-08-17T09:06:30;4.85;;;2.72;;
20002;SDS011;10162;41.600;23.806;2023-08-17T09:08:58;4.28;;;2.80;;
20002;SDS011;10162;41.600;23.806;2023-08-17T09:11:27;3.05;;;2.33;;
20002;SDS011;10162;41.600;23.806;2023-08-17T09:13:53;3.95;;;2.63;;
20002;SDS011;10162;41.600;23.806;2023-08-17T09:16:19;3.38;;;2.55;;
20002;SDS011;10162;41.600;23.806;2023-08-17T09:18:45;2.70;;;2.50;;
20002;SDS011;10162;41.600;23.806;2023-08-17T09:21:21;3.63;;;2.72;;
20002;SDS011;10162;41.600;23.806;2023-08-17T09:23:55;5.35;;;2.92;;
20002;SDS011;10162;41.600;23.806;2023-08-17T09:26:22;2.67;;;2.45;;
20002;SDS011;10162;41.600;23.806;2023-08-17T09:28:51;2.83;;;2.58;;
20002;SDS011;10162;41.600;23.806;2023-08-17T09:31:20;3.83;;;2.92;;
20002;SDS011;10162;41.600;23.806;2023-08-17T09:33:51;2.78;;;2.45;;
20002;SDS011;10162;41.600;23.806;2023-08-17T09:36:21;2.70;;;2.50;;
20002;SDS011;10162;41.600;23.806;2023-08-17T09:38:48;4.20;;;2.30;;
20002;SDS011;10162;41.600;23.806;2023-08-17T09:41:15;2.72;;;2.53;;
20002;SDS011;10162;41.600;23.806;2023-08-17T09:43:42;4.32;;;2.60;;
20002;SDS011;10162;41.600;23.806;2023-08-17T09:46:08;5.15;;;2.60;;
20002;SDS011;10162;41.600;23.806;2023-08-17T09:48:35;3.20;;;2.60;;
20002;SDS011;10162;41.600;23.806;2023-08-17T09:51:01;3.53;;;2.97;;
20002;SDS011;10162;41.600;23.806;2023-08-17T09:53:27;3.15;;;2.78;;
20002;SDS011;10162;41.600;23.806;2023-08-17T09:55:53;4.13;;;2.40;;
20002;SDS011;10162;41.600;23.806;2023-08-17T09:58:22;3.47;;;2.85;;
20002;SDS011;10162;41.600;23.806;2023-08-17T10:00:48;3.30;;;2.90;;
20002;SDS011;10162;41.600;23.806;2023-08-17T10:03:17;4.30;;;2.88;;
20002;SDS011;10162;41.600;23.806;2023-08-17T10:05:44;3.38;;;3.08;;
20002;SDS011;10162;41.600;23.806;2023-08-17T10:08:15;3.75;;;2.50;;
20002;SDS011;10162;41.600;23.806;2023-08-17T10:10:45;2.60;;;2.38;;
20002;SDS011;10162;41.600;23.806;2023-08-17T10:13:13;3.80;;;2.83;;
20002;SDS011;10162;41.600;23.806;2023-08-17T10:15:57;2.88;;;2.50;;
20002;SDS011;10162;41.600;23.806;2023-08-17T10:18:42;3.75;;;2.63;;
20002;SDS011;10162;41.600;23.806;2023-08-17T10:21:37;3.10;;;2.45;;
20002;SDS011;10162;41.600;23.806;2023-08-17T10:24:17;4.65;;;2.78;;
20002;SDS011;10162;41.600;23.806;2023-08-17T10:26:46;4.30;;;2.20;;
20002;SDS011;10162;41.600;23.806;2023-08-17T10:29:12;5.93;;;2.75;;
20002;SDS011;10162;41.600;23.806;2023-08-17T10:31:40;2.97;;;2.58;;
20002;SDS011;10162;41.600;23.806;2023-08-17T10:34:17;3.95;;;3.03;;
20002;SDS011;10162;41.600;23.806;2023-08-17T10:36:44;3.88;;;3.22;;
20002;SDS011;10162;41.600;23.806;2023-08-17T10:39:18;6.38;;;2.90;;
20002;SDS011;10162;41.600;23.806;2023-08-17T10:41:48;4.38;;;2.90;;
20002;SDS011;10162;41.600;23.806;2023-08-17T10:47:32;5.00;;;2.90;;
20002;SDS011;10162;41.600;23.806;2023-08-17T10:50:03;3.05;;;2.75;;
20002;SDS011;10162;41.600;23.806;2023-08-17T10:52:47;2.90;;;2.58;;
20002;SDS011;10162;41.600;23.806;2023-08-17T10:55:13;6.15;;;2.97;;
20002;SDS011;10162;41.600;23.806;2023-08-17T10:57:42;7.18;;;3.25;;
20002;SDS011;10162;41.600;23.806;2023-08-17T11:00:16;3.83;;;2.55;;
20002;SDS011;10162;41.600;23.806;2023-08-17T11:02:55;4.63;;;2.50;;
20002;SDS011;10162;41.600;23.806;2023-08-17T11:05:47;3.13;;;2.80;;
20002;SDS011;10162;41.600;23.806;2023-08-17T11:11:22;3.47;;;2.60;;
20002;SDS011;10162;41.600;23.806;2023-08-17T11:13:48;5.22;;;2.60;;
20002;SDS011;10162;41.600;23.806;2023-08-17T11:16:16;4.90;;;2.92;;
20002;SDS011;10162;41.600;23.806;2023-08-17T11:18:45;2.92;;;2.72;;
20002;SDS011;10162;41.600;23.806;2023-08-17T11:21:13;2.58;;;2.38;;
20002;SDS011;10162;41.600;23.806;2023-08-17T11:23:44;3.40;;;3.00;;
20002;SDS011;10162;41.600;23.806;2023-08-17T11:26:10;5.45;;;3.10;;
20002;SDS011;10162;41.600;23.806;2023-08-17T11:28:37;7.30;;;3.40;;
20002;SDS011;10162;41.600;23.806;2023-08-17T11:31:07;3.03;;;2.72;;
20002;SDS011;10162;41.600;23.806;2023-08-17T11:36:11;3.58;;;2.80;;
20002;SDS011;10162;41.600;23.806;2023-08-17T11:38:41;3.67;;;2.80;;
20002;SDS011;10162;41.600;23.806;2023-08-17T11:41:10;6.25;;;3.38;;
20002;SDS011;10162;41.600;23.806;2023-08-17T11:46:23;5.68;;;2.85;;
20002;SDS011;10162;41.600;23.806;2023-08-17T11:48:50;2.80;;;2.42;;
20002;SDS011;10162;41.600;23.806;2023-08-17T11:51:27;3.15;;;2.85;;
20002;SDS011;10162;41.600;23.806;2023-08-17T11:57:00;4.75;;;2.60;;
20002;SDS011;10162;41.600;23.806;2023-08-17T11:59:25;3.35;;;3.00;;
20002;SDS011;10162;41.600;23.806;2023-08-17T12:01:54;4.20;;;3.13;;
20002;SDS011;10162;41.600;23.806;2023-08-17T12:04:28;5.75;;;2.63;;
20002;SDS011;10162;41.600;23.806;2023-08-17T12:06:55;3.20;;;2.90;;
20002;SDS011;10162;41.600;23.806;2023-08-17T12:09:21;3.20;;;2.90;;
20002;SDS011;10162;41.600;23.806;2023-08-17T12:11:53;4.50;;;3.17;;
20002;SDS011;10162;41.600;23.806;2023-08-17T12:14:26;5.00;;;3.00;;
20002;SDS011;10162;41.600;23.806;2023-08-17T12:16:53;3.17;;;2.88;;
20002;SDS011;10162;41.600;23.806;2023-08-17T12:19:22;3.97;;;2.92;;
20002;SDS011;10162;41.600;23.806;2023-08-17T12:21:50;3.80;;;3.42;;
20002;SDS011;10162;41.600;23.806;2023-08-17T12:27:13;5.97;;;2.40;;
20002;SDS011;10162;41.600;23.806;2023-08-17T12:29:51;3.10;;;2.53;;
20002;SDS011;10162;41.600;23.806;2023-08-17T12:32:19;5.65;;;3.03;;
20002;SDS011;10162;41.600;23.806;2023-08-17T12:34:46;4.00;;;2.80;;
20002;SDS011;10162;41.600;23.806;2023-08-17T12:37:12;4.78;;;2.92;;
20002;SDS011;10162;41.600;23.806;2023-08-17T12:39:43;3.60;;;2.65;;
20002;SDS011;10162;41.600;23.806;2023-08-17T12:42:09;3.17;;;2.88;;
20002;SDS011;10162;41.600;23.806;2023-08-17T12:47:23;9.85;;;3.30;;
20002;SDS011;10162;41.600;23.806;2023-08-17T12:49:49;3.20;;;2.90;;
20002;SDS011;10162;41.600;23.806;2023-08-17T12:52:15;3.50;;;3.15;;
20002;SDS011;10162;41.600;23.806;2023-08-17T12:54:58;4.03;;;2.92;;
20002;SDS011;10162;41.600;23.806;2023-08-17T12:57:24;4.68;;;3.38;;
20002;SDS011;10162;41.600;23.806;2023-08-17T12:59:50;5.03;;;2.42;;
20002;SDS011;10162;41.600;23.806;2023-08-17T13:02:19;4.10;;;2.60;;
20002;SDS011;10162;41.600;23.806;2023-08-17T13:07:54;5.80;;;2.67;;
20002;SDS011;10162;41.600;23.806;2023-08-17T13:10:19;5.82;;;2.63;;
20002;SDS011;10162;41.600;23.806;2023-08-17T13:12:45;5.78;;;3.70;;
20002;SDS011;10162;41.600;23.806;2023-08-17T13:18:25;3.60;;;2.88;;
20002;SDS011;10162;41.600;23.806;2023-08-17T13:20:51;5.57;;;2.97;;
20002;SDS011;10162;41.600;23.806;2023-08-17T13:23:34;3.80;;;3.40;;
20002;SDS011;10162;41.600;23.806;2023-08-17T13:26:01;3.55;;;2.83;;
20002;SDS011;10162;41.600;23.806;2023-08-17T13:28:26;4.05;;;2.90;;
20002;SDS011;10162;41.600;23.806;2023-08-17T13:30:53;4.70;;;2.60;;
20002;SDS011;10162;41.600;23.806;2023-08-17T13:36:12;4.88;;;3.40;;
20002;SDS011;10162;41.600;23.806;2023-08-17T13:38:38;4.35;;;3.42;;
20002;SDS011;10162;41.600;23.806;2023-08-17T13:41:04;3.13;;;2.92;;
20002;SDS011;10162;41.600;23.806;2023-08-17T13:43:32;3.15;;;2.85;;
20002;SDS011;10162;41.600;23.806;2023-08-17T13:46:03;3.60;;;3.30;;
20002;SDS011;10162;41.600;23.806;2023-08-17T13:48:30;5.28;;;3.35;;
20002;SDS011;10162;41.600;23.806;2023-08-17T13:50:56;3.08;;;2.70;;
20002;SDS011;10162;41.600;23.806;2023-08-17T13:53:21;4.25;;;3.30;;
20002;SDS011;10162;41.600;23.806;2023-08-17T13:55:47;4.30;;;3.17;;
20002;SDS011;10162;41.600;23.806;2023-08-17T13:58:13;3.33;;;2.65;;
20002;SDS011;10162;41.600;23.806;2023-08-17T14:00:41;5.93;;;3.05;;
20002;SDS011;10162;41.600;23.806;2023-08-17T14:03:09;6.90;;;3.10;;
20002;SDS011;10162;41.600;23.806;2023-08-17T14:05:34;4.78;;;3.05;;
20002;SDS011;10162;41.600;23.806;2023-08-17T14:08:00;4.85;;;3.00;;
20002;SDS011;10162;41.600;23.806;2023-08-17T14:10:27;3.60;;;2.78;;
20002;SDS011;10162;41.600;23.806;2023-08-17T14:12:52;5.10;;;3.22;;
20002;SDS011;10162;41.600;23.806;2023-08-17T14:15:20;3.83;;;2.72;;
20002;SDS011;10162;41.600;23.806;2023-08-17T14:17:47;6.80;;;3.15;;
20002;SDS011;10162;41.600;23.806;2023-08-17T14:20:13;3.85;;;2.75;;
20002;SDS011;10162;41.600;23.806;2023-08-17T14:22:39;4.93;;;3.20;;
20002;SDS011;10162;41.600;23.806;2023-08-17T14:28:30;3.53;;;3.22;;
20002;SDS011;10162;41.600;23.806;2023-08-17T14:30:56;5.47;;;3.35;;
20002;SDS011;10162;41.600;23.806;2023-08-17T14:36:05;5.00;;;2.85;;
20002;SDS011;10162;41.600;23.806;2023-08-17T14:38:31;3.60;;;3.15;;
20002;SDS011;10162;41.600;23.806;2023-08-17T14:40:57;4.10;;;2.80;;
20002;SDS011;10162;41.600;23.806;2023-08-17T14:49:16;4.00;;;2.72;;
20002;SDS011;10162;41.600;23.806;2023-08-17T14:51:42;4.78;;;3.08;;
20002;SDS011;10162;41.600;23.806;2023-08-17T14:57:06;4.22;;;2.80;;
20002;SDS011;10162;41.600;23.806;2023-08-17T14:59:32;4.47;;;2.88;;
20002;SDS011;10162;41.600;23.806;2023-08-17T15:01:59;3.53;;;3.22;;
20002;SDS011;10162;41.600;23.806;2023-08-17T15:07:33;4.03;;;3.00;;
20002;SDS011;10162;41.600;23.806;2023-08-17T15:09:58;3.25;;;3.00;;
20002;SDS011;10162;41.600;23.806;2023-08-17T15:12:24;5.82;;;2.92;;
20002;SDS011;10162;41.600;23.806;2023-08-17T15:15:07;3.25;;;2.90;;
20002;SDS011;10162;41.600;23.806;2023-08-17T15:17:34;4.13;;;2.78;;
20002;SDS011;10162;41.600;23.806;2023-08-17T15:20:00;5.82;;;2.97;;
20002;SDS011;10162;41.600;23.806;2023-08-17T15:22:26;3.15;;;2.85;;
20002;SDS011;10162;41.600;23.806;2023-08-17T15:24:53;3.15;;;2.85;;
20002;SDS011;10162;41.600;23.806;2023-08-17T15:27:22;4.38;;;3.05;;
20002;SDS011;10162;41.600;23.806;2023-08-17T15:29:48;3.53;;;3.00;;
20002;SDS011;10162;41.600;23.806;2023-08-17T15:32:14;3.20;;;2.67;;